Search for airport 
image banner adimage banner adimage banner ad
image banner ad

KLOM - Wings Field

Located in Philadelphia, United States

ICAO - LOM, IATA - BBX

Data provided by Airmate  

General information

Coordinates: N40°8'15" W75°15'55"
Elevation is 302 feet MSL.
Magnetic variation is -12° East
View others Airports in Pennsylvania

Operational data

Special qualification required
Current time UTC:
Current local time:
Weather
METAR: KLOM 091355Z AUTO 25003KT 10SM OVC110 11/05 A3010 RMK AO2 T01080047
View NOTAMs / SUP AIP / TFR affecting this airport [VIEW]
Communications frequencies: [VIEW]

Runways:

RWY identifierQFULength (ft)Width (ft)SurfaceLDA (ft)
0653°370075ASPH
24233°370075ASPH

Airport contact information

Address: Philadelphia United States

Other aviation service providers

Flight schools

Fly Advanced - Blue Bell

Fly Advanced - Blue Bell
info@flyadvanced.com+1(215)646-0400

Satellite view of KLOM